createdAt,value
2023-01-18T00:00:55.724Z,94523.06
2023-01-18T00:03:22.345Z,94517.38
2023-01-18T00:05:48.926Z,94519.53
2023-01-18T00:08:15.574Z,94517.00
2023-01-18T00:10:42.194Z,94508.56
2023-01-18T00:13:08.888Z,94511.31
2023-01-18T00:15:35.517Z,94502.59
2023-01-18T00:18:02.170Z,94506.25
2023-01-18T00:20:28.777Z,94503.44
2023-01-18T00:22:55.636Z,94501.19
2023-01-18T00:25:22.475Z,94491.16
2023-01-18T00:27:49.075Z,94491.63
2023-01-18T00:30:15.692Z,94491.94
2023-01-18T00:32:42.313Z,94483.06
2023-01-18T00:35:08.932Z,94463.81
2023-01-18T00:37:35.515Z,94453.06
2023-01-18T00:40:02.135Z,94466.06
2023-01-18T00:42:28.741Z,94477.47
2023-01-18T00:44:55.423Z,94470.06
2023-01-18T00:47:22.066Z,94470.06
2023-01-18T00:49:48.729Z,94466.75
2023-01-18T00:52:15.324Z,94478.69
2023-01-18T00:54:41.962Z,94488.34
2023-01-18T00:57:08.551Z,94512.72
2023-01-18T00:59:35.195Z,94529.06
2023-01-18T01:02:01.933Z,94536.22
2023-01-18T01:04:28.651Z,94540.72
2023-01-18T01:06:55.247Z,94559.09
2023-01-18T01:09:21.867Z,94562.28
2023-01-18T01:11:48.462Z,94581.44
2023-01-18T01:14:15.074Z,94579.84
2023-01-18T01:16:41.752Z,94589.41
2023-01-18T01:19:08.401Z,94601.84
2023-01-18T01:21:35.081Z,94606.38
2023-01-18T01:24:01.663Z,94612.84
2023-01-18T01:26:28.342Z,94600.03
2023-01-18T01:28:54.917Z,94607.66
2023-01-18T01:31:21.521Z,94607.09
2023-01-18T01:33:48.107Z,94603.47
2023-01-18T01:36:14.675Z,94616.19
2023-01-18T01:38:41.354Z,94623.38
2023-01-18T01:41:07.942Z,94619.31
2023-01-18T01:43:34.598Z,94624.72
2023-01-18T01:46:01.249Z,94629.63
2023-01-18T01:48:27.951Z,94612.84
2023-01-18T01:50:54.541Z,94615.34
2023-01-18T01:53:21.203Z,94612.38
2023-01-18T01:55:47.796Z,94600.94
2023-01-18T01:58:14.458Z,94596.22
2023-01-18T02:00:41.013Z,94586.47
2023-01-18T02:03:07.684Z,94581.66
2023-01-18T02:05:34.270Z,94580.44
2023-01-18T02:08:00.855Z,94576.59
2023-01-18T02:10:27.460Z,94582.31
2023-01-18T02:12:54.099Z,94588.03
2023-01-18T02:15:20.787Z,94577.81
2023-01-18T02:17:47.408Z,94589.69
2023-01-18T02:20:14.078Z,94596.69
2023-01-18T02:22:40.740Z,94603.50
2023-01-18T02:25:07.325Z,94599.94
2023-01-18T02:27:34.032Z,94592.13
2023-01-18T02:30:00.680Z,94585.84
2023-01-18T02:32:27.332Z,94574.75
2023-01-18T02:34:53.900Z,94559.75
2023-01-18T02:37:20.492Z,94561.13
2023-01-18T02:39:47.066Z,94556.31
2023-01-18T02:42:13.719Z,94549.16
2023-01-18T02:44:40.342Z,94555.84
2023-01-18T02:47:06.905Z,94550.09
2023-01-18T02:49:33.518Z,94547.22
2023-01-18T02:52:00.170Z,94561.13
2023-01-18T02:54:26.819Z,94579.75
2023-01-18T02:56:53.487Z,94585.84
2023-01-18T02:59:20.077Z,94586.28
2023-01-18T03:01:46.728Z,94592.16
2023-01-18T03:04:13.323Z,94590.66
2023-01-18T03:06:39.919Z,94594.41
2023-01-18T03:09:06.509Z,94589.50
2023-01-18T03:11:33.120Z,94590.44
2023-01-18T03:13:59.698Z,94590.91
2023-01-18T03:16:26.263Z,94584.53
2023-01-18T03:18:53.002Z,94577.59
2023-01-18T03:21:19.622Z,94567.16
2023-01-18T03:23:46.228Z,94568.47
2023-01-18T03:26:12.807Z,94563.13
2023-01-18T03:28:39.441Z,94561.47
2023-01-18T03:31:06.059Z,94565.72
2023-01-18T03:33:32.705Z,94565.06
2023-01-18T03:35:59.323Z,94569.84
2023-01-18T03:38:25.955Z,94593.44
2023-01-18T03:40:52.602Z,94591.63
2023-01-18T03:43:19.206Z,94591.63
2023-01-18T03:45:45.840Z,94588.81
2023-01-18T03:48:12.464Z,94594.38
2023-01-18T03:50:39.122Z,94586.34
2023-01-18T03:53:05.755Z,94589.88
2023-01-18T03:55:32.353Z,94589.28
2023-01-18T03:57:58.931Z,94597.47
2023-01-18T04:00:25.505Z,94601.59
2023-01-18T04:02:52.164Z,94601.94
2023-01-18T04:05:18.755Z,94603.06
2023-01-18T04:07:45.343Z,94604.31
2023-01-18T04:10:11.948Z,94603.41
2023-01-18T04:12:38.594Z,94610.75
2023-01-18T04:15:05.228Z,94614.84
2023-01-18T04:17:31.847Z,94618.72
2023-01-18T04:19:58.493Z,94621.00
2023-01-18T04:22:25.117Z,94620.53
2023-01-18T04:24:51.752Z,94619.72
2023-01-18T04:27:18.348Z,94628.53
2023-01-18T04:29:44.970Z,94625.47
2023-01-18T04:32:11.543Z,94633.97
2023-01-18T04:34:38.165Z,94630.47
2023-01-18T04:37:04.825Z,94622.88
2023-01-18T04:39:31.491Z,94612.25
2023-01-18T04:41:58.137Z,94618.25
2023-01-18T04:44:24.735Z,94604.38
2023-01-18T04:46:51.439Z,94599.59
2023-01-18T04:49:18.063Z,94609.44
2023-01-18T04:51:44.767Z,94615.69
2023-01-18T04:54:11.388Z,94626.38
2023-01-18T04:56:37.988Z,94620.69
2023-01-18T04:59:04.574Z,94626.50
2023-01-18T05:01:31.287Z,94635.00
2023-01-18T05:03:57.939Z,94643.16
2023-01-18T05:06:24.555Z,94664.69
2023-01-18T05:08:51.148Z,94676.19
2023-01-18T05:11:17.751Z,94681.06
2023-01-18T05:13:44.360Z,94684.03
2023-01-18T05:16:10.991Z,94676.34
2023-01-18T05:18:37.693Z,94684.69
2023-01-18T05:21:04.312Z,94676.09
2023-01-18T05:23:30.978Z,94681.28
2023-01-18T05:25:57.550Z,94686.22
2023-01-18T05:28:24.109Z,94698.56
2023-01-18T05:30:50.727Z,94712.28
2023-01-18T05:33:17.392Z,94711.84
2023-01-18T05:35:44.015Z,94720.34
2023-01-18T05:38:10.610Z,94733.84
2023-01-18T05:40:37.266Z,94737.69
2023-01-18T05:43:03.899Z,94737.94
2023-01-18T05:45:30.529Z,94745.66
2023-01-18T05:47:57.098Z,94748.84
2023-01-18T05:50:23.680Z,94753.47
2023-01-18T05:52:50.307Z,94745.44
2023-01-18T05:55:16.889Z,94736.13
2023-01-18T05:57:43.477Z,94727.16
2023-01-18T06:00:10.076Z,94731.16
2023-01-18T06:02:36.740Z,94746.69
2023-01-18T06:05:03.356Z,94751.56
2023-01-18T06:07:29.971Z,94750.66
2023-01-18T06:09:56.604Z,94760.66
2023-01-18T06:12:23.230Z,94762.69
2023-01-18T06:14:49.828Z,94764.84
2023-01-18T06:17:16.434Z,94773.59
2023-01-18T06:19:43.077Z,94780.97
2023-01-18T06:22:09.780Z,94775.84
2023-01-18T06:24:36.361Z,94785.50
2023-01-18T06:27:02.965Z,94770.38
2023-01-18T06:29:29.545Z,94767.22
2023-01-18T06:31:56.323Z,94777.56
2023-01-18T06:34:23.003Z,94793.34
2023-01-18T06:36:49.656Z,94789.13
2023-01-18T06:39:16.307Z,94780.63
2023-01-18T06:41:42.915Z,94794.63
2023-01-18T06:44:09.590Z,94805.16
2023-01-18T06:46:36.200Z,94806.13
2023-01-18T06:49:02.856Z,94812.41
2023-01-18T06:51:29.489Z,94831.81
2023-01-18T06:53:56.156Z,94822.06
2023-01-18T06:56:22.750Z,94822.97
2023-01-18T06:58:49.321Z,94826.59
2023-01-18T07:01:15.976Z,94837.81
2023-01-18T07:03:42.707Z,94840.44
2023-01-18T07:06:09.363Z,94842.94
2023-01-18T07:08:36.000Z,94845.19
2023-01-18T07:11:02.604Z,94845.91
2023-01-18T07:13:29.175Z,94857.59
2023-01-18T07:15:55.779Z,94859.41
2023-01-18T07:18:22.368Z,94862.59
2023-01-18T07:20:48.944Z,94874.84
2023-01-18T07:23:15.532Z,94889.56
2023-01-18T07:25:42.180Z,94896.69
2023-01-18T07:28:08.873Z,94903.13
2023-01-18T07:30:35.509Z,94907.66
2023-01-18T07:33:02.161Z,94908.06
2023-01-18T07:35:29.763Z,94905.47
2023-01-18T07:37:56.432Z,94903.50
2023-01-18T07:40:23.064Z,94906.16
2023-01-18T07:42:49.699Z,94901.06
2023-01-18T07:45:16.312Z,94890.00
2023-01-18T07:47:42.891Z,94886.72
2023-01-18T07:50:09.515Z,94893.53
2023-01-18T07:52:36.073Z,94901.50
2023-01-18T07:55:02.733Z,94899.56
2023-01-18T07:57:29.526Z,94889.69
2023-01-18T07:59:56.189Z,94895.69
2023-01-18T08:02:22.792Z,94891.13
2023-01-18T08:04:49.380Z,94896.00
2023-01-18T08:07:17.870Z,94893.28
2023-01-18T08:09:44.591Z,94914.56
2023-01-18T08:12:11.284Z,94922.84
2023-01-18T08:14:37.856Z,94922.03
2023-01-18T08:17:04.491Z,94922.91
2023-01-18T08:19:31.115Z,94938.19
2023-01-18T08:21:57.735Z,94955.03
2023-01-18T08:24:25.067Z,94956.00
2023-01-18T08:26:51.663Z,94959.44
2023-01-18T08:29:18.292Z,94959.56
2023-01-18T08:31:44.894Z,94956.84
2023-01-18T08:34:11.517Z,94963.66
2023-01-18T08:36:38.111Z,94969.91
2023-01-18T08:39:04.745Z,94974.44
2023-01-18T08:41:31.392Z,94969.66
2023-01-18T08:43:58.026Z,94976.03
2023-01-18T08:46:24.891Z,94987.31
2023-01-18T08:48:51.581Z,94995.03
2023-01-18T08:51:18.745Z,95010.59
2023-01-18T08:53:45.377Z,95014.22
2023-01-18T08:56:12.023Z,95017.06
2023-01-18T08:58:38.717Z,95012.22
2023-01-18T09:01:05.486Z,95024.38
2023-01-18T09:03:32.108Z,95031.75
2023-01-18T09:05:58.774Z,95035.75
2023-01-18T09:08:25.435Z,95043.91
2023-01-18T09:10:52.089Z,95044.03
2023-01-18T09:13:18.720Z,95060.97
2023-01-18T09:15:45.463Z,95067.56
2023-01-18T09:18:12.170Z,95077.13
2023-01-18T09:20:38.821Z,95081.22
2023-01-18T09:23:05.509Z,95107.06
2023-01-18T09:25:32.179Z,95108.22
2023-01-18T09:27:58.800Z,95110.00
2023-01-18T09:30:25.445Z,95120.47
2023-01-18T09:32:52.048Z,95127.34
2023-01-18T09:35:18.679Z,95135.69
2023-01-18T09:37:45.554Z,95141.06
2023-01-18T09:40:12.155Z,95137.66
2023-01-18T09:42:38.795Z,95133.78
2023-01-18T09:45:05.459Z,95131.97
2023-01-18T09:47:32.088Z,95148.25
2023-01-18T09:49:58.710Z,95148.16
2023-01-18T09:52:25.320Z,95135.19
2023-01-18T09:54:51.927Z,95136.56
2023-01-18T09:57:18.574Z,95143.09
2023-01-18T09:59:45.224Z,95145.97
2023-01-18T10:02:11.989Z,95149.03
2023-01-18T10:04:38.687Z,95137.53
2023-01-18T10:07:05.279Z,95148.25
2023-01-18T10:09:31.891Z,95139.16
2023-01-18T10:11:58.538Z,95137.56
2023-01-18T10:14:25.115Z,95124.13
2023-01-18T10:16:53.593Z,95127.22
2023-01-18T10:19:22.060Z,95140.75
2023-01-18T10:21:48.703Z,95141.09
2023-01-18T10:24:15.310Z,95137.44
2023-01-18T10:26:42.064Z,95144.03
2023-01-18T10:29:08.664Z,95157.00
2023-01-18T10:31:35.381Z,95160.75
2023-01-18T10:34:02.004Z,95167.13
2023-01-18T10:36:28.636Z,95176.72
2023-01-18T10:38:55.297Z,95176.25
2023-01-18T10:41:21.890Z,95180.91
2023-01-18T10:43:48.539Z,95181.94
2023-01-18T10:46:15.173Z,95192.44
2023-01-18T10:48:41.816Z,95206.44
2023-01-18T10:51:08.780Z,95207.09
2023-01-18T10:53:35.338Z,95213.84
2023-01-18T10:56:01.935Z,95217.38
2023-01-18T10:58:28.563Z,95213.84
2023-01-18T11:00:55.353Z,95200.75
2023-01-18T11:03:22.053Z,95203.13
2023-01-18T11:05:48.880Z,95212.09
2023-01-18T11:08:15.527Z,95224.34
2023-01-18T11:10:42.111Z,95242.78
2023-01-18T11:13:09.734Z,95245.03
2023-01-18T11:15:36.684Z,95250.84
2023-01-18T11:18:03.435Z,95248.31
2023-01-18T11:20:30.235Z,95239.94
2023-01-18T11:22:57.387Z,95225.66
2023-01-18T11:25:24.208Z,95222.59
2023-01-18T11:27:50.979Z,95220.09
2023-01-18T11:30:18.006Z,95224.53
2023-01-18T11:32:44.726Z,95215.88
2023-01-18T11:35:11.640Z,95217.16
2023-01-18T11:37:38.406Z,95223.59
2023-01-18T11:40:05.198Z,95225.59
2023-01-18T11:42:32.140Z,95238.06
2023-01-18T11:44:58.865Z,95242.53
2023-01-18T11:47:25.650Z,95235.34
2023-01-18T11:49:52.482Z,95245.88
2023-01-18T11:52:19.274Z,95235.25
2023-01-18T11:54:45.952Z,95238.81
2023-01-18T11:57:12.681Z,95239.28
2023-01-18T11:59:39.517Z,95244.97
2023-01-18T12:02:06.409Z,95240.25
2023-01-18T12:04:33.155Z,95239.63
2023-01-18T12:07:00.123Z,95250.03
2023-01-18T12:09:27.006Z,95262.13
2023-01-18T12:11:53.807Z,95269.44
2023-01-18T12:14:23.241Z,95277.44
2023-01-18T12:16:50.086Z,95277.81
2023-01-18T12:19:17.325Z,95284.06
2023-01-18T12:21:44.180Z,95274.78
2023-01-18T12:24:13.871Z,95276.84
2023-01-18T12:26:40.640Z,95274.34
2023-01-18T12:29:07.298Z,95279.97
2023-01-18T12:31:34.047Z,95273.00
2023-01-18T12:34:00.955Z,95275.47
2023-01-18T12:36:28.091Z,95277.56
2023-01-18T12:38:54.785Z,95273.97
2023-01-18T12:41:21.687Z,95271.34
2023-01-18T12:43:48.404Z,95266.81
2023-01-18T12:46:15.245Z,95265.63
2023-01-18T12:48:41.977Z,95257.03
2023-01-18T12:51:08.724Z,95250.66
2023-01-18T12:53:35.567Z,95242.56
2023-01-18T12:56:04.008Z,95233.13
2023-01-18T12:58:30.877Z,95236.34
2023-01-18T13:00:58.037Z,95242.13
2023-01-18T13:03:25.303Z,95250.25
2023-01-18T13:05:52.242Z,95241.88
2023-01-18T13:08:18.901Z,95246.28
2023-01-18T13:10:45.582Z,95243.91
2023-01-18T13:13:12.223Z,95243.66
2023-01-18T13:15:39.016Z,95244.88
2023-01-18T13:18:05.969Z,95252.91
2023-01-18T13:20:32.648Z,95260.63
2023-01-18T13:22:59.418Z,95269.25
2023-01-18T13:25:26.249Z,95276.44
2023-01-18T13:27:53.062Z,95282.50
2023-01-18T13:30:19.757Z,95292.97
2023-01-18T13:32:46.426Z,95300.47
2023-01-18T13:35:20.526Z,95315.19
2023-01-18T13:37:48.089Z,95330.28
2023-01-18T13:40:15.273Z,95341.94
2023-01-18T13:42:41.913Z,95349.00
2023-01-18T13:45:08.637Z,95350.41
2023-01-18T13:47:35.439Z,95361.13
2023-01-18T13:50:02.350Z,95368.28
2023-01-18T13:52:29.372Z,95379.31
2023-01-18T13:54:56.203Z,95388.53
2023-01-18T13:57:23.087Z,95397.31
2023-01-18T13:59:49.768Z,95395.03
2023-01-18T14:02:16.441Z,95393.88
2023-01-18T14:04:43.272Z,95401.25
2023-01-18T14:07:10.030Z,95408.13
2023-01-18T14:09:36.728Z,95399.75
2023-01-18T14:12:03.410Z,95404.91
2023-01-18T14:14:30.090Z,95406.56
2023-01-18T14:16:56.916Z,95414.53
2023-01-18T14:19:23.580Z,95419.66
2023-01-18T14:21:50.232Z,95415.78
2023-01-18T14:24:16.859Z,95411.13
2023-01-18T14:26:43.496Z,95417.44
2023-01-18T14:29:10.135Z,95415.47
2023-01-18T14:31:36.832Z,95420.72
2023-01-18T14:34:03.442Z,95422.50
2023-01-18T14:36:30.062Z,95433.47
2023-01-18T14:38:56.719Z,95435.16
2023-01-18T14:41:23.349Z,95438.72
2023-01-18T14:43:49.996Z,95446.13
2023-01-18T14:46:16.679Z,95446.84
2023-01-18T14:48:43.322Z,95434.47
2023-01-18T14:51:09.968Z,95443.19
2023-01-18T14:53:36.613Z,95444.91
2023-01-18T14:56:03.205Z,95449.34
2023-01-18T14:58:31.555Z,95460.44
2023-01-18T15:00:59.482Z,95466.59
2023-01-18T15:03:26.126Z,95461.81
2023-01-18T15:05:52.767Z,95467.16
2023-01-18T15:08:19.328Z,95474.50
2023-01-18T15:10:46.098Z,95471.75
2023-01-18T15:13:12.705Z,95474.50
2023-01-18T15:15:39.343Z,95477.16
2023-01-18T15:18:06.011Z,95480.34
2023-01-18T15:20:32.650Z,95476.25
2023-01-18T15:22:59.616Z,95476.00
2023-01-18T15:25:26.424Z,95472.16
2023-01-18T15:27:53.103Z,95468.13
2023-01-18T15:30:19.673Z,95463.59
2023-01-18T15:32:46.281Z,95470.19
2023-01-18T15:35:13.019Z,95458.22
2023-01-18T15:37:39.631Z,95463.34
2023-01-18T15:40:06.240Z,95459.69
2023-01-18T15:42:32.880Z,95461.97
2023-01-18T15:44:59.459Z,95462.78
2023-01-18T15:47:26.023Z,95467.22
2023-01-18T15:49:52.694Z,95467.47
2023-01-18T15:52:19.360Z,95470.78
2023-01-18T15:54:45.962Z,95473.50
2023-01-18T15:57:12.544Z,95465.06
2023-01-18T15:59:39.389Z,95472.94
2023-01-18T16:02:06.084Z,95471.81
2023-01-18T16:04:32.833Z,95460.41
2023-01-18T16:06:59.391Z,95468.94
2023-01-18T16:09:26.017Z,95461.41
2023-01-18T16:11:52.630Z,95473.25
2023-01-18T16:14:19.201Z,95481.13
2023-01-18T16:16:45.865Z,95483.19
2023-01-18T16:19:12.523Z,95477.03
2023-01-18T16:21:39.159Z,95493.84
2023-01-18T16:24:05.845Z,95499.22
2023-01-18T16:26:32.433Z,95514.34
2023-01-18T16:28:59.076Z,95527.25
2023-01-18T16:31:25.823Z,95532.25
2023-01-18T16:33:52.543Z,95526.34
2023-01-18T16:36:19.195Z,95526.34
2023-01-18T16:38:45.851Z,95529.75
2023-01-18T16:41:12.487Z,95528.13
2023-01-18T16:43:39.139Z,95543.63
2023-01-18T16:46:05.849Z,95542.97
2023-01-18T16:48:32.556Z,95538.41
2023-01-18T16:50:59.140Z,95543.78
2023-01-18T16:53:25.783Z,95549.59
2023-01-18T16:55:52.392Z,95557.13
2023-01-18T16:58:18.965Z,95552.31
2023-01-18T17:00:45.685Z,95556.75
2023-01-18T17:03:12.360Z,95573.25
2023-01-18T17:05:39.005Z,95580.47
2023-01-18T17:08:05.634Z,95583.28
2023-01-18T17:10:32.272Z,95590.50
2023-01-18T17:12:59.305Z,95582.13
2023-01-18T17:15:26.070Z,95576.84
2023-01-18T17:17:52.660Z,95580.97
2023-01-18T17:20:19.241Z,95581.34
2023-01-18T17:22:45.941Z,95578.78
2023-01-18T17:25:12.547Z,95588.31
2023-01-18T17:27:39.193Z,95592.19
2023-01-18T17:30:05.894Z,95594.00
2023-01-18T17:32:32.492Z,95601.88
2023-01-18T17:34:59.121Z,95589.97
2023-01-18T17:37:25.812Z,95595.22
2023-01-18T17:40:10.918Z,95592.03
2023-01-18T17:42:38.937Z,95585.56
2023-01-18T17:45:05.594Z,95592.25
2023-01-18T17:47:32.187Z,95600.03
2023-01-18T17:49:58.801Z,95600.47
2023-01-18T17:52:25.427Z,95610.28
2023-01-18T17:54:52.075Z,95621.16
2023-01-18T17:57:18.716Z,95624.09
2023-01-18T17:59:45.395Z,95625.78
2023-01-18T18:02:12.099Z,95632.91
2023-01-18T18:04:38.828Z,95625.47
2023-01-18T18:07:05.546Z,95624.59
2023-01-18T18:09:32.217Z,95633.25
2023-01-18T18:11:58.873Z,95628.81
2023-01-18T18:14:25.453Z,95632.59
2023-01-18T18:16:52.131Z,95636.81
2023-01-18T18:19:18.747Z,95638.56
2023-01-18T18:21:45.430Z,95628.97
2023-01-18T18:24:12.026Z,95623.56
2023-01-18T18:26:38.661Z,95616.09
2023-01-18T18:29:05.342Z,95620.91
2023-01-18T18:31:32.025Z,95620.25
2023-01-18T18:33:58.640Z,95621.06
2023-01-18T18:36:25.281Z,95629.22
2023-01-18T18:38:51.941Z,95627.22
2023-01-18T18:41:18.569Z,95618.13
2023-01-18T18:43:45.272Z,95609.84
2023-01-18T18:46:11.944Z,95622.25
2023-01-18T18:48:38.607Z,95620.22
2023-01-18T18:51:05.203Z,95624.16
2023-01-18T18:53:38.198Z,95630.34
2023-01-18T18:56:05.390Z,95630.19
2023-01-18T18:58:32.010Z,95630.84
2023-01-18T19:00:58.716Z,95620.81
2023-01-18T19:03:25.328Z,95626.06
2023-01-18T19:05:51.967Z,95624.94
2023-01-18T19:08:18.577Z,95622.22
2023-01-18T19:10:45.212Z,95622.84
2023-01-18T19:13:11.884Z,95625.56
2023-01-18T19:15:38.555Z,95631.50
2023-01-18T19:18:05.197Z,95632.56
2023-01-18T19:20:31.861Z,95620.97
2023-01-18T19:22:58.783Z,95614.56
2023-01-18T19:25:25.696Z,95619.41
2023-01-18T19:27:52.311Z,95627.00
2023-01-18T19:30:19.403Z,95630.41
2023-01-18T19:32:46.062Z,95634.97
2023-01-18T19:35:12.679Z,95629.69
2023-01-18T19:37:39.293Z,95633.47
2023-01-18T19:40:05.910Z,95644.72
2023-01-18T19:42:32.558Z,95640.72
2023-01-18T19:44:59.530Z,95631.44
2023-01-18T19:47:26.219Z,95643.16
2023-01-18T19:49:52.905Z,95645.59
2023-01-18T19:52:19.646Z,95651.78
2023-01-18T19:54:46.283Z,95652.59
2023-01-18T19:57:12.877Z,95649.16
2023-01-18T19:59:39.521Z,95646.56
2023-01-18T20:02:06.321Z,95641.03
2023-01-18T20:04:33.095Z,95647.63
2023-01-18T20:06:59.754Z,95635.28
2023-01-18T20:09:35.166Z,95637.69
2023-01-18T20:12:09.214Z,95635.97
2023-01-18T20:14:41.221Z,95641.47
2023-01-18T20:17:08.412Z,95645.84
2023-01-18T20:19:35.028Z,95647.81
2023-01-18T20:22:01.746Z,95639.81
2023-01-18T20:24:28.511Z,95645.59
2023-01-18T20:26:57.720Z,95641.56
2023-01-18T20:29:26.248Z,95645.06
2023-01-18T20:31:55.178Z,95644.47
2023-01-18T20:34:23.860Z,95647.28
2023-01-18T20:36:50.527Z,95653.38
2023-01-18T20:39:17.184Z,95655.06
2023-01-18T20:41:43.826Z,95655.78
2023-01-18T20:44:10.473Z,95661.91
2023-01-18T20:46:37.117Z,95673.59
2023-01-18T20:49:03.782Z,95668.81
2023-01-18T20:51:30.420Z,95671.38
2023-01-18T20:53:57.093Z,95671.56
2023-01-18T20:56:29.197Z,95674.69
2023-01-18T20:58:56.186Z,95671.06
2023-01-18T21:01:22.878Z,95666.75
2023-01-18T21:06:33.651Z,95677.72
2023-01-18T21:09:00.298Z,95673.94
2023-01-18T21:11:27.018Z,95676.31
2023-01-18T21:13:53.671Z,95680.34
2023-01-18T21:16:20.322Z,95684.50
2023-01-18T21:18:46.957Z,95694.78
2023-01-18T21:21:13.580Z,95700.72
2023-01-18T21:23:40.178Z,95693.34
2023-01-18T21:26:06.849Z,95688.41
2023-01-18T21:28:33.437Z,95701.44
2023-01-18T21:31:00.100Z,95706.38
2023-01-18T21:33:26.759Z,95713.03
2023-01-18T21:35:53.381Z,95706.19
2023-01-18T21:38:19.986Z,95716.22
2023-01-18T21:40:46.666Z,95703.03
2023-01-18T21:43:13.305Z,95714.56
2023-01-18T21:45:39.939Z,95719.84
2023-01-18T21:48:06.583Z,95722.66
2023-01-18T21:50:33.188Z,95728.31
2023-01-18T21:52:59.777Z,95723.22
2023-01-18T21:55:26.402Z,95727.38
2023-01-18T21:57:52.968Z,95731.16
2023-01-18T22:00:19.614Z,95735.97
2023-01-18T22:02:46.234Z,95737.41
2023-01-18T22:05:12.852Z,95731.09
2023-01-18T22:07:39.468Z,95745.00
2023-01-18T22:10:07.257Z,95739.84
2023-01-18T22:12:34.023Z,95747.94
2023-01-18T22:15:00.615Z,95747.69
2023-01-18T22:17:27.261Z,95746.84
2023-01-18T22:19:53.893Z,95738.91
2023-01-18T22:22:20.527Z,95744.25
2023-01-18T22:24:47.116Z,95747.44
2023-01-18T22:27:13.727Z,95760.63
2023-01-18T22:29:40.400Z,95773.75
2023-01-18T22:32:07.096Z,95783.75
2023-01-18T22:34:33.714Z,95786.56
2023-01-18T22:37:00.321Z,95790.34
2023-01-18T22:39:26.946Z,95785.44
2023-01-18T22:41:53.529Z,95788.91
2023-01-18T22:44:20.187Z,95790.47
2023-01-18T22:46:46.801Z,95793.13
2023-01-18T22:49:13.392Z,95795.91
2023-01-18T22:51:40.000Z,95794.50
2023-01-18T22:54:06.607Z,95799.09
2023-01-18T22:56:33.198Z,95797.88
2023-01-18T22:58:59.832Z,95798.44
2023-01-18T23:01:26.604Z,95787.97
2023-01-18T23:03:53.314Z,95793.19
2023-01-18T23:06:20.035Z,95801.88
2023-01-18T23:08:46.619Z,95808.84
2023-01-18T23:11:13.247Z,95808.25
2023-01-18T23:13:39.866Z,95813.91
2023-01-18T23:16:06.543Z,95819.50
2023-01-18T23:18:33.257Z,95812.50
2023-01-18T23:21:00.103Z,95799.13
2023-01-18T23:23:26.761Z,95801.19
2023-01-18T23:25:53.389Z,95808.63
2023-01-18T23:28:20.000Z,95813.84
2023-01-18T23:30:46.670Z,95818.72
2023-01-18T23:33:13.324Z,95811.94
2023-01-18T23:35:40.027Z,95805.31
2023-01-18T23:38:06.666Z,95806.69
2023-01-18T23:40:33.291Z,95808.91
2023-01-18T23:42:59.940Z,95806.66
2023-01-18T23:45:28.343Z,95812.00
2023-01-18T23:47:55.656Z,95805.34
2023-01-18T23:50:22.283Z,95800.47
2023-01-18T23:52:48.914Z,95798.97
2023-01-18T23:55:15.575Z,95801.78
2023-01-18T23:57:42.170Z,95799.34
